createdAt,value
2023-04-19T00:02:21.766Z,11.10
2023-04-19T00:04:48.966Z,11.10
2023-04-19T00:07:17.134Z,11.10
2023-04-19T00:09:44.138Z,11.10
2023-04-19T00:12:10.773Z,11.00
2023-04-19T00:14:37.604Z,11.00
2023-04-19T00:17:04.614Z,11.00
2023-04-19T00:19:31.406Z,11.00
2023-04-19T00:21:58.201Z,11.00
2023-04-19T00:24:25.142Z,11.00
2023-04-19T00:26:51.924Z,11.00
2023-04-19T00:29:18.810Z,11.00
2023-04-19T00:31:45.686Z,11.00
2023-04-19T00:34:16.340Z,11.00
2023-04-19T00:36:43.688Z,11.00
2023-04-19T00:39:10.447Z,11.00
2023-04-19T00:41:38.417Z,11.00
2023-04-19T00:44:05.309Z,11.00
2023-04-19T00:46:33.432Z,11.00
2023-04-19T00:49:00.591Z,11.00
2023-04-19T00:51:27.779Z,11.00
2023-04-19T00:53:54.803Z,11.00
2023-04-19T00:56:24.115Z,11.00
2023-04-19T00:58:54.274Z,11.00
2023-04-19T01:01:21.249Z,10.90
2023-04-19T01:03:49.796Z,10.90
2023-04-19T01:06:16.659Z,10.90
2023-04-19T01:08:43.379Z,10.90
2023-04-19T01:11:10.214Z,10.90
2023-04-19T01:13:37.042Z,10.90
2023-04-19T01:16:04.157Z,10.90
2023-04-19T01:18:37.408Z,10.80
2023-04-19T01:21:05.378Z,10.90
2023-04-19T01:23:32.145Z,10.90
2023-04-19T01:25:58.971Z,10.90
2023-04-19T01:28:25.899Z,10.90
2023-04-19T01:30:54.054Z,10.90
2023-04-19T01:33:21.084Z,10.90
2023-04-19T01:35:48.454Z,10.90
2023-04-19T01:38:16.516Z,10.80
2023-04-19T01:40:43.745Z,10.90
2023-04-19T01:43:13.776Z,10.90
2023-04-19T01:45:40.714Z,10.80
2023-04-19T01:48:07.474Z,10.80
2023-04-19T01:50:34.639Z,10.80
2023-04-19T01:53:01.358Z,10.80
2023-04-19T01:55:29.011Z,10.70
2023-04-19T01:57:56.092Z,10.70
2023-04-19T02:00:23.501Z,10.70
2023-04-19T02:02:50.323Z,10.70
2023-04-19T02:05:17.165Z,10.70
2023-04-19T02:07:44.147Z,10.70
2023-04-19T02:10:11.626Z,10.60
2023-04-19T02:12:38.394Z,10.60
2023-04-19T02:15:05.910Z,10.60
2023-04-19T02:17:35.974Z,10.60
2023-04-19T02:20:04.245Z,10.60
2023-04-19T02:22:32.470Z,10.50
2023-04-19T02:24:59.628Z,10.50
2023-04-19T02:27:29.681Z,10.50
2023-04-19T02:29:56.649Z,10.50
2023-04-19T02:32:24.630Z,10.50
2023-04-19T02:34:52.006Z,10.40
2023-04-19T02:37:19.030Z,10.40
2023-04-19T02:39:46.032Z,10.40
2023-04-19T02:42:13.062Z,10.40
2023-04-19T02:44:39.880Z,10.40
2023-04-19T02:47:06.731Z,10.40
2023-04-19T02:49:36.561Z,10.40
2023-04-19T02:52:03.993Z,10.40
2023-04-19T02:54:33.295Z,10.30
2023-04-19T02:57:00.931Z,10.30
2023-04-19T02:59:27.897Z,10.30
2023-04-19T03:01:56.805Z,10.30
2023-04-19T03:04:25.497Z,10.30
2023-04-19T03:06:52.753Z,10.20
2023-04-19T03:09:21.218Z,10.20
2023-04-19T03:11:47.962Z,10.20
2023-04-19T03:14:17.243Z,10.10
2023-04-19T03:16:44.227Z,10.10
2023-04-19T03:19:11.080Z,10.10
2023-04-19T03:21:45.898Z,10.10
2023-04-19T03:24:13.194Z,10.10
2023-04-19T03:26:45.315Z,10.00
2023-04-19T03:29:14.336Z,10.00
2023-04-19T03:31:56.395Z,9.90
2023-04-19T03:34:23.636Z,9.90
2023-04-19T03:36:50.490Z,9.80
2023-04-19T03:39:20.337Z,9.80
2023-04-19T03:41:50.885Z,9.80
2023-04-19T03:44:23.580Z,9.80
2023-04-19T03:46:50.490Z,9.80
2023-04-19T03:49:22.308Z,9.80
2023-04-19T03:51:54.968Z,9.80
2023-04-19T03:54:21.852Z,9.80
2023-04-19T03:56:48.756Z,9.80
2023-04-19T03:59:15.777Z,9.90
2023-04-19T04:01:43.529Z,9.90
2023-04-19T04:04:11.957Z,9.80
2023-04-19T04:06:39.848Z,9.80
2023-04-19T04:09:07.685Z,9.70
2023-04-19T04:11:34.873Z,9.70
2023-04-19T04:14:01.719Z,9.70
2023-04-19T04:16:32.110Z,9.70
2023-04-19T04:18:59.717Z,9.70
2023-04-19T04:21:28.681Z,9.60
2023-04-19T04:24:01.911Z,9.60
2023-04-19T04:26:52.278Z,9.60
2023-04-19T04:29:23.370Z,9.60
2023-04-19T04:31:52.572Z,9.60
2023-04-19T04:34:24.550Z,9.60
2023-04-19T04:36:57.358Z,9.70
2023-04-19T04:39:24.942Z,9.60
2023-04-19T04:41:53.110Z,9.70
2023-04-19T04:44:20.673Z,9.70
2023-04-19T04:46:48.470Z,9.70
2023-04-19T04:49:21.947Z,9.70
2023-04-19T04:51:49.703Z,9.80
2023-04-19T04:54:17.842Z,9.80
2023-04-19T04:56:47.395Z,9.80
2023-04-19T04:59:16.598Z,9.80
2023-04-19T05:01:47.182Z,9.80
2023-04-19T05:04:15.476Z,10.00
2023-04-19T05:06:45.901Z,10.00
2023-04-19T05:09:19.528Z,10.10
2023-04-19T05:11:46.486Z,10.10
2023-04-19T05:14:13.458Z,10.20
2023-04-19T05:16:40.521Z,10.20
2023-04-19T05:19:07.546Z,10.30
2023-04-19T05:21:40.007Z,10.30
2023-04-19T05:24:09.987Z,10.30
2023-04-19T05:26:37.403Z,10.30
2023-04-19T05:29:05.788Z,10.30
2023-04-19T05:31:45.493Z,10.30
2023-04-19T05:34:21.238Z,10.40
2023-04-19T05:36:49.107Z,10.50
2023-04-19T05:39:17.033Z,10.50
2023-04-19T05:41:43.970Z,10.50
2023-04-19T05:44:10.823Z,10.60
2023-04-19T05:46:37.741Z,10.70
2023-04-19T05:49:06.522Z,10.60
2023-04-19T05:52:08.781Z,10.70
2023-04-19T05:54:45.403Z,10.80
2023-04-19T05:57:12.293Z,10.90
2023-04-19T05:59:39.047Z,11.00
2023-04-19T06:02:07.468Z,11.20
2023-04-19T06:04:34.524Z,11.30
2023-04-19T06:07:01.518Z,11.40
2023-04-19T06:09:28.880Z,11.40
2023-04-19T06:11:56.809Z,11.40
2023-04-19T06:14:24.335Z,11.40
2023-04-19T06:16:51.305Z,11.40
2023-04-19T06:19:18.079Z,11.50
2023-04-19T06:21:44.914Z,11.40
2023-04-19T06:24:11.810Z,11.40
2023-04-19T06:26:38.536Z,11.50
2023-04-19T06:29:05.318Z,11.60
2023-04-19T06:31:33.363Z,11.60
2023-04-19T06:34:00.747Z,11.70
2023-04-19T06:36:27.577Z,11.90
2023-04-19T06:38:54.364Z,12.00
2023-04-19T06:41:21.199Z,12.10
2023-04-19T06:43:48.357Z,12.20
2023-04-19T06:46:15.904Z,12.40
2023-04-19T06:48:42.852Z,12.40
2023-04-19T06:51:09.647Z,12.40
2023-04-19T06:53:36.943Z,12.30
2023-04-19T06:56:04.848Z,12.30
2023-04-19T06:58:34.538Z,12.30
2023-04-19T07:01:04.135Z,12.20
2023-04-19T07:03:31.307Z,12.40
2023-04-19T07:05:58.427Z,12.40
2023-04-19T07:08:34.901Z,12.30
2023-04-19T07:11:09.559Z,12.30
2023-04-19T07:13:36.192Z,12.20
2023-04-19T07:16:05.655Z,12.10
2023-04-19T07:18:32.721Z,12.20
2023-04-19T07:20:59.415Z,12.30
2023-04-19T07:23:26.129Z,12.30
2023-04-19T07:25:52.889Z,12.40
2023-04-19T07:28:19.719Z,12.50
2023-04-19T07:30:46.556Z,12.40
2023-04-19T07:33:13.609Z,12.40
2023-04-19T07:35:40.625Z,12.40
2023-04-19T07:38:07.397Z,12.30
2023-04-19T07:40:34.196Z,12.40
2023-04-19T07:43:00.905Z,12.30
2023-04-19T07:45:27.615Z,12.40
2023-04-19T07:47:54.379Z,12.40
2023-04-19T07:50:23.120Z,12.40
2023-04-19T07:52:50.124Z,12.50
2023-04-19T07:55:17.092Z,12.50
2023-04-19T07:57:48.060Z,12.40
2023-04-19T08:00:17.204Z,12.40
2023-04-19T08:02:48.076Z,12.50
2023-04-19T08:05:19.237Z,12.60
2023-04-19T08:07:46.488Z,12.80
2023-04-19T08:10:13.377Z,12.70
2023-04-19T08:12:50.398Z,12.70
2023-04-19T08:17:56.631Z,13.10
2023-04-19T08:20:23.560Z,13.20
2023-04-19T08:22:51.128Z,13.50
2023-04-19T08:25:18.096Z,13.90
2023-04-19T08:27:44.847Z,14.10
2023-04-19T08:30:12.121Z,14.10
2023-04-19T08:32:41.903Z,14.20
2023-04-19T08:35:09.326Z,14.20
2023-04-19T08:37:36.145Z,14.10
2023-04-19T08:40:03.891Z,14.10
2023-04-19T08:42:36.873Z,14.30
2023-04-19T08:47:52.056Z,14.60
2023-04-19T08:50:33.421Z,15.00
2023-04-19T08:53:16.390Z,15.10
2023-04-19T08:56:08.696Z,14.80
2023-04-19T08:58:57.130Z,14.60
2023-04-19T09:01:33.758Z,14.60
2023-04-19T09:04:26.484Z,14.80
2023-04-19T09:06:54.276Z,15.20
2023-04-19T09:09:37.239Z,15.20
2023-04-19T09:12:18.362Z,15.60
2023-04-19T09:17:17.212Z,15.70
2023-04-19T09:19:49.447Z,15.30
2023-04-19T09:22:16.812Z,15.00
2023-04-19T09:27:16.739Z,15.00
2023-04-19T09:29:53.296Z,15.30
2023-04-19T09:32:20.232Z,15.30
2023-04-19T09:34:58.984Z,15.40
2023-04-19T09:37:51.531Z,15.40
2023-04-19T09:40:24.512Z,15.70
2023-04-19T09:45:30.137Z,16.70
2023-04-19T09:48:07.478Z,17.20
2023-04-19T09:50:46.829Z,17.90
2023-04-19T09:53:21.629Z,18.60
2023-04-19T09:56:00.656Z,18.80
2023-04-19T09:58:34.451Z,19.10
2023-04-19T10:01:15.076Z,18.90
2023-04-19T10:03:46.526Z,18.80
2023-04-19T10:08:50.706Z,19.90
2023-04-19T10:11:20.394Z,19.40
2023-04-19T10:13:48.865Z,19.00
2023-04-19T10:16:20.042Z,18.50
2023-04-19T10:18:49.870Z,18.80
2023-04-19T10:21:17.935Z,19.70
2023-04-19T10:23:44.704Z,20.20
2023-04-19T10:26:11.583Z,21.10
2023-04-19T10:28:38.383Z,21.30
2023-04-19T10:31:05.585Z,20.50
2023-04-19T10:33:37.492Z,19.80
2023-04-19T10:36:08.280Z,20.30
2023-04-19T10:38:41.462Z,19.50
2023-04-19T10:41:14.449Z,19.50
2023-04-19T10:43:55.489Z,19.70
2023-04-19T10:46:22.238Z,19.60
2023-04-19T10:48:55.103Z,19.80
2023-04-19T10:51:27.789Z,20.40
2023-04-19T10:54:08.711Z,20.00
2023-04-19T10:56:35.696Z,19.70
2023-04-19T10:59:02.859Z,20.40
2023-04-19T11:01:41.164Z,19.90
2023-04-19T11:04:18.275Z,19.70
2023-04-19T11:06:54.279Z,19.60
2023-04-19T11:09:34.827Z,19.20
2023-04-19T11:12:10.060Z,19.20
2023-04-19T11:14:40.791Z,19.90
2023-04-19T11:17:28.111Z,20.70
2023-04-19T11:19:57.916Z,22.10
2023-04-19T11:22:32.494Z,21.80
2023-04-19T11:25:10.554Z,21.20
2023-04-19T11:27:38.487Z,20.50
2023-04-19T11:30:21.565Z,21.00
2023-04-19T11:32:52.180Z,20.80
2023-04-19T11:35:30.401Z,21.30
2023-04-19T11:37:59.509Z,20.80
2023-04-19T11:40:26.848Z,21.20
2023-04-19T11:43:02.588Z,21.90
2023-04-19T11:45:34.508Z,21.90
2023-04-19T11:48:05.404Z,22.90
2023-04-19T11:50:42.122Z,23.10
2023-04-19T11:53:13.511Z,22.20
2023-04-19T11:55:43.297Z,22.10
2023-04-19T11:58:22.293Z,22.00
2023-04-19T12:00:49.133Z,22.40
2023-04-19T12:03:16.852Z,21.80
2023-04-19T12:05:53.842Z,22.20
2023-04-19T12:08:32.024Z,23.40
2023-04-19T12:10:59.653Z,23.90
2023-04-19T12:13:26.546Z,24.10
2023-04-19T12:15:53.475Z,23.30
2023-04-19T12:18:20.441Z,23.60
2023-04-19T12:20:49.586Z,23.60
2023-04-19T12:23:17.634Z,22.60
2023-04-19T12:25:46.603Z,22.50
2023-04-19T12:28:14.626Z,22.90
2023-04-19T12:30:42.001Z,23.30
2023-04-19T12:33:09.414Z,23.70
2023-04-19T12:35:37.293Z,23.70
2023-04-19T12:38:04.083Z,24.30
2023-04-19T12:40:31.331Z,24.50
2023-04-19T12:42:58.075Z,24.30
2023-04-19T12:45:26.251Z,24.30
2023-04-19T12:47:53.162Z,24.40
2023-04-19T12:50:19.951Z,24.70
2023-04-19T12:52:46.925Z,25.50
2023-04-19T12:55:13.864Z,24.70
2023-04-19T12:57:40.607Z,24.70
2023-04-19T13:00:09.971Z,25.90
2023-04-19T13:02:36.926Z,25.40
2023-04-19T13:05:05.504Z,25.40
2023-04-19T13:07:32.356Z,25.10
2023-04-19T13:09:59.357Z,24.70
2023-04-19T13:12:26.198Z,24.30
2023-04-19T13:14:52.998Z,24.70
2023-04-19T13:17:20.652Z,25.10
2023-04-19T13:19:47.546Z,25.40
2023-04-19T13:22:14.733Z,25.40
2023-04-19T13:24:41.462Z,24.70
2023-04-19T13:27:09.080Z,23.90
2023-04-19T13:29:36.456Z,23.50
2023-04-19T13:32:07.146Z,23.80
2023-04-19T13:34:34.154Z,24.70
2023-04-19T13:37:00.966Z,25.30
2023-04-19T13:39:27.726Z,24.80
2023-04-19T13:41:54.471Z,24.80
2023-04-19T13:44:21.278Z,24.70
2023-04-19T13:46:48.160Z,24.70
2023-04-19T13:49:14.941Z,24.70
2023-04-19T13:51:49.583Z,24.30
2023-04-19T13:54:19.497Z,24.30
2023-04-19T13:56:47.465Z,24.10
2023-04-19T13:59:15.776Z,24.50
2023-04-19T14:01:42.688Z,24.50
2023-04-19T14:04:09.578Z,24.70
2023-04-19T14:06:36.647Z,25.00
2023-04-19T14:09:03.439Z,25.30
2023-04-19T14:11:30.620Z,25.80
2023-04-19T14:13:57.790Z,25.80
2023-04-19T14:16:25.224Z,24.80
2023-04-19T14:18:52.552Z,25.20
2023-04-19T14:21:19.528Z,24.10
2023-04-19T14:23:46.536Z,24.20
2023-04-19T14:26:13.411Z,23.60
2023-04-19T14:28:40.399Z,24.10
2023-04-19T14:31:07.178Z,23.60
2023-04-19T14:33:33.984Z,24.30
2023-04-19T14:36:01.380Z,25.10
2023-04-19T14:38:28.334Z,24.90
2023-04-19T14:40:55.286Z,23.80
2023-04-19T14:43:22.019Z,23.40
2023-04-19T14:45:52.248Z,23.90
2023-04-19T14:48:21.948Z,23.80
2023-04-19T14:50:49.165Z,24.50
2023-04-19T14:53:16.131Z,24.00
2023-04-19T14:55:42.848Z,23.60
2023-04-19T14:58:09.622Z,22.90
2023-04-19T15:00:36.318Z,23.30
2023-04-19T15:03:03.330Z,24.20
2023-04-19T15:05:30.500Z,24.90
2023-04-19T15:07:57.519Z,25.10
2023-04-19T15:10:24.450Z,24.50
2023-04-19T15:12:51.300Z,24.00
2023-04-19T15:15:18.264Z,23.20
2023-04-19T15:17:45.086Z,23.90
2023-04-19T15:20:12.331Z,24.30
2023-04-19T15:22:39.251Z,23.50
2023-04-19T15:25:06.316Z,22.80
2023-04-19T15:27:33.049Z,22.80
2023-04-19T15:29:59.866Z,22.60
2023-04-19T15:32:27.499Z,21.90
2023-04-19T15:34:54.341Z,21.60
2023-04-19T15:37:21.158Z,22.30
2023-04-19T15:39:50.169Z,23.20
2023-04-19T15:42:17.054Z,23.30
2023-04-19T15:44:44.326Z,23.60
2023-04-19T15:47:11.122Z,23.10
2023-04-19T15:49:37.951Z,22.60
2023-04-19T15:52:04.931Z,22.50
2023-04-19T15:54:31.640Z,21.60
2023-04-19T15:56:58.367Z,21.70
2023-04-19T15:59:25.739Z,21.20
2023-04-19T16:01:52.577Z,21.40
2023-04-19T16:04:19.485Z,21.50
2023-04-19T16:06:46.280Z,21.70
2023-04-19T16:09:13.010Z,21.00
2023-04-19T16:11:39.742Z,20.50
2023-04-19T16:14:06.430Z,20.90
2023-04-19T16:16:34.590Z,21.00
2023-04-19T16:19:02.689Z,20.90
2023-04-19T16:21:30.850Z,20.30
2023-04-19T16:23:57.736Z,20.00
2023-04-19T16:26:24.573Z,19.20
2023-04-19T16:28:51.477Z,18.90
2023-04-19T16:31:18.342Z,18.10
2023-04-19T16:33:45.184Z,17.80
2023-04-19T16:36:12.013Z,16.90
2023-04-19T16:38:38.806Z,16.30
2023-04-19T16:41:06.278Z,16.10
2023-04-19T16:43:33.275Z,15.90
2023-04-19T16:45:59.988Z,15.90
2023-04-19T16:48:27.073Z,15.70
2023-04-19T16:50:53.831Z,15.50
2023-04-19T16:53:21.179Z,15.30
2023-04-19T16:55:48.117Z,15.10
2023-04-19T16:58:15.042Z,14.90
2023-04-19T17:00:41.939Z,14.70
2023-04-19T17:03:11.936Z,14.60
2023-04-19T17:05:38.861Z,14.40
2023-04-19T17:08:05.730Z,14.50
2023-04-19T17:10:32.495Z,14.50
2023-04-19T17:12:59.295Z,14.50
2023-04-19T17:15:26.193Z,14.30
2023-04-19T17:17:52.885Z,14.20
2023-04-19T17:20:19.818Z,14.30
2023-04-19T17:22:46.522Z,14.30
2023-04-19T17:25:13.342Z,14.40
2023-04-19T17:27:40.240Z,14.30
2023-04-19T17:30:08.080Z,14.20
2023-04-19T17:32:35.888Z,14.10
2023-04-19T17:35:04.204Z,13.90
2023-04-19T17:37:31.224Z,13.70
2023-04-19T17:39:58.088Z,13.60
2023-04-19T17:42:24.866Z,13.50
2023-04-19T17:44:51.612Z,13.40
2023-04-19T17:47:21.587Z,13.30
2023-04-19T17:49:48.384Z,13.30
2023-04-19T17:52:15.244Z,13.20
2023-04-19T17:54:41.981Z,13.20
2023-04-19T17:57:09.008Z,13.10
2023-04-19T17:59:35.783Z,13.00
2023-04-19T18:02:02.635Z,12.90
2023-04-19T18:04:30.913Z,12.90
2023-04-19T18:06:57.800Z,12.80
2023-04-19T18:09:24.577Z,12.70
2023-04-19T18:11:51.396Z,12.50
2023-04-19T18:14:18.182Z,12.40
2023-04-19T18:16:45.022Z,12.30
2023-04-19T18:19:11.760Z,12.30
2023-04-19T18:21:38.510Z,12.30
2023-04-19T18:24:05.849Z,12.20
2023-04-19T18:26:41.174Z,12.10
2023-04-19T18:29:08.183Z,12.00
2023-04-19T18:31:34.970Z,11.90
2023-04-19T18:34:02.249Z,11.90
2023-04-19T18:36:29.178Z,11.90
2023-04-19T18:38:55.944Z,11.70
2023-04-19T18:41:22.699Z,11.70
2023-04-19T18:44:18.457Z,11.60
2023-04-19T18:46:38.171Z,11.50
2023-04-19T18:49:04.985Z,11.40
2023-04-19T18:51:32.716Z,11.40
2023-04-19T18:53:59.479Z,11.30
2023-04-19T18:57:03.822Z,11.20
2023-04-19T18:59:13.307Z,11.10
2023-04-19T19:01:40.498Z,11.10
2023-04-19T19:04:31.744Z,11.00
2023-04-19T19:06:54.668Z,11.00
2023-04-19T19:09:22.978Z,10.90
2023-04-19T19:11:56.664Z,10.80
2023-04-19T19:14:23.959Z,10.80
2023-04-19T19:16:52.806Z,10.70
2023-04-19T19:19:22.769Z,10.60
2023-04-19T19:21:49.959Z,10.60
2023-04-19T19:24:16.743Z,10.50
2023-04-19T19:26:43.503Z,10.50
2023-04-19T19:29:11.837Z,10.40
2023-04-19T19:31:38.558Z,10.40
2023-04-19T19:34:23.451Z,10.30
2023-04-19T19:36:52.388Z,10.30
2023-04-19T19:39:19.202Z,10.20
2023-04-19T19:44:16.004Z,10.20
2023-04-19T19:46:43.277Z,10.20
2023-04-19T19:49:13.015Z,10.20
2023-04-19T19:51:57.019Z,10.20
2023-04-19T19:54:24.825Z,10.10
2023-04-19T19:59:29.167Z,10.00
2023-04-19T20:01:56.698Z,10.00
2023-04-19T20:04:23.655Z,9.90
2023-04-19T20:09:21.296Z,9.80
2023-04-19T20:11:48.048Z,9.80
2023-04-19T20:14:14.729Z,9.70
2023-04-19T20:16:41.667Z,9.70
2023-04-19T20:19:09.860Z,9.60
2023-04-19T20:21:37.953Z,9.50
2023-04-19T20:24:05.879Z,9.50
2023-04-19T20:26:33.171Z,9.40
2023-04-19T20:29:01.035Z,9.40
2023-04-19T20:31:27.878Z,9.30
2023-04-19T20:33:54.606Z,9.40
2023-04-19T20:36:24.591Z,9.30
2023-04-19T20:38:51.529Z,9.30
2023-04-19T20:41:18.954Z,9.20
2023-04-19T20:43:45.679Z,9.10
2023-04-19T20:46:12.424Z,9.10
2023-04-19T20:48:39.374Z,9.10
2023-04-19T20:51:06.074Z,9.00
2023-04-19T20:53:33.457Z,8.90
2023-04-19T20:56:01.226Z,8.80
2023-04-19T20:58:28.062Z,8.80
2023-04-19T21:00:54.784Z,8.70
2023-04-19T21:03:21.695Z,8.70
2023-04-19T21:05:48.543Z,8.60
2023-04-19T21:08:16.065Z,8.50
2023-04-19T21:10:42.844Z,8.40
2023-04-19T21:13:09.583Z,8.40
2023-04-19T21:15:39.762Z,8.30
2023-04-19T21:18:06.882Z,8.20
2023-04-19T21:20:34.056Z,8.10
2023-04-19T21:23:01.945Z,8.10
2023-04-19T21:25:28.761Z,8.10
2023-04-19T21:27:55.625Z,8.10
2023-04-19T21:30:23.620Z,8.00
2023-04-19T21:32:50.812Z,7.90
2023-04-19T21:35:17.945Z,7.80
2023-04-19T21:37:44.615Z,7.70
2023-04-19T21:40:11.752Z,7.60
2023-04-19T21:42:38.818Z,7.60
2023-04-19T21:45:06.926Z,7.50
2023-04-19T21:47:33.839Z,7.40
2023-04-19T21:50:00.625Z,7.30
2023-04-19T21:52:27.458Z,7.20
2023-04-19T21:54:55.213Z,7.10
2023-04-19T21:57:24.730Z,7.10
2023-04-19T21:59:51.551Z,7.00
2023-04-19T22:02:21.355Z,6.90
2023-04-19T22:04:49.174Z,6.90
2023-04-19T22:07:18.707Z,6.80
2023-04-19T22:09:46.288Z,6.70
2023-04-19T22:12:13.684Z,6.70
2023-04-19T22:14:40.766Z,6.70
2023-04-19T22:17:08.985Z,6.70
2023-04-19T22:19:35.784Z,6.70
2023-04-19T22:22:02.540Z,6.80
2023-04-19T22:24:29.415Z,6.70
2023-04-19T22:26:57.477Z,6.70
2023-04-19T22:29:24.437Z,6.60
2023-04-19T22:31:51.513Z,6.50
2023-04-19T22:34:18.304Z,6.50
2023-04-19T22:36:45.309Z,6.50
2023-04-19T22:39:12.216Z,6.40
2023-04-19T22:41:38.991Z,6.40
2023-04-19T22:44:05.802Z,6.40
2023-04-19T22:46:33.011Z,6.30
2023-04-19T22:49:00.008Z,6.30
2023-04-19T22:51:27.807Z,6.40
2023-04-19T22:53:54.804Z,6.40
2023-04-19T22:56:21.777Z,6.30
2023-04-19T22:58:48.583Z,6.30
2023-04-19T23:01:15.408Z,6.20
2023-04-19T23:03:42.164Z,6.20
2023-04-19T23:10:22.332Z,6.10
2023-04-19T23:12:49.459Z,6.00
2023-04-19T23:15:16.351Z,6.00
2023-04-19T23:17:43.305Z,5.90
2023-04-19T23:21:12.998Z,5.90
2023-04-19T23:23:40.060Z,5.90
2023-04-19T23:26:06.693Z,5.80
2023-04-19T23:28:33.571Z,5.80
2023-04-19T23:31:00.607Z,5.70
2023-04-19T23:33:27.349Z,5.70
2023-04-19T23:35:54.174Z,5.60
2023-04-19T23:38:21.198Z,5.60
2023-04-19T23:40:47.820Z,5.60
2023-04-19T23:43:14.667Z,5.60
2023-04-19T23:45:41.461Z,5.60
2023-04-19T23:48:08.312Z,5.60
2023-04-19T23:50:35.599Z,5.60
2023-04-19T23:53:04.398Z,5.70
2023-04-19T23:55:31.376Z,5.60
2023-04-19T23:57:58.371Z,5.60
